Time;durP1;ratioP1;P1;durP2;ratioP2;P2;SDS_P1;SDS_P2;PMS_P1;PMS_P2;Temp;Humidity;BMP_temperature;BMP_pressure;BME280_temperature;BME280_humidity;BME280_pressure;Samples;Min_cycle;Max_cycle;Signal;HPM_P1;HPM_P2
2023/12/27 00:00:19;;;;;;;13.07;4.37;;;;;;;;;;5122739;27;20009;-76
2023/12/27 00:02:52;;;;;;;14.63;4.33;;;;;;;;;;5103329;28;20104;-77
2023/12/27 00:05:18;;;;;;;16.23;5.50;;;;;;;;;;5102260;28;20005;-77
2023/12/27 00:07:54;;;;;;;11.17;4.63;;;;;;;;;;5107495;28;20015;-77
2023/12/27 00:10:41;;;;;;;18.50;4.47;;;;;;;;;;5106802;28;20004;-77
2023/12/27 00:13:11;;;;;;;12.00;4.03;;;;;;;;;;5117302;27;20032;-77
2023/12/27 00:15:46;;;;;;;17.50;5.77;;;;;;;;;;5098722;28;20028;-77
2023/12/27 00:18:16;;;;;;;13.53;4.20;;;;;;;;;;5097967;28;20039;-77
2023/12/27 00:20:51;;;;;;;21.90;6.07;;;;;;;;;;5096170;28;20020;-77
2023/12/27 00:23:45;;;;;;;17.77;4.43;;;;;;;;;;5109383;28;20025;-77
2023/12/27 00:26:20;;;;;;;22.20;5.37;;;;;;;;;;5111322;28;20043;-77
2023/12/27 00:28:48;;;;;;;12.40;5.13;;;;;;;;;;5091380;28;20023;-77
2023/12/27 00:31:24;;;;;;;;;;;;;;;;;;;;;
2023/12/27 00:34:00;;;;;;;;;;;;;;;;;;;;;
2023/12/27 00:36:47;;;;;;;18.07;4.40;;;;;;;;;;5113505;28;20036;-77
2023/12/27 00:39:23;;;;;;;;;;;;;;;;;;;;;
2023/12/27 00:41:52;;;;;;;16.63;5.33;;;;;;;;;;5111444;28;20032;-77
2023/12/27 00:44:19;;;;;;;19.50;5.30;;;;;;;;;;5092257;28;20119;-77
2023/12/27 00:46:45;;;;;;;17.60;6.30;;;;;;;;;;5111036;28;20023;-77
2023/12/27 00:49:13;;;;;;;26.37;4.77;;;;;;;;;;5093057;28;20040;-77
2023/12/27 00:51:45;;;;;;;15.30;3.87;;;;;;;;;;5108612;28;21147;-77
2023/12/27 00:54:18;;;;;;;12.93;4.53;;;;;;;;;;5098501;28;20020;-77
2023/12/27 00:57:10;;;;;;;14.63;5.03;;;;;;;;;;5116778;27;20016;-78
2023/12/27 00:59:44;;;;;;;19.27;4.23;;;;;;;;;;5090985;27;20049;-77
2023/12/27 01:02:18;;;;;;;22.33;4.57;;;;;;;;;;5115404;27;20020;-77
2023/12/27 01:04:59;;;;;;;;;;;;;;;;;;;;;
2023/12/27 01:07:46;;;;;;;20.33;5.53;;;;;;;;;;5116516;27;20032;-77
2023/12/27 01:10:25;;;;;;;17.53;4.40;;;;;;;;;;5100107;27;20051;-77
2023/12/27 01:12:51;;;;;;;22.90;5.33;;;;;;;;;;5112763;28;20020;-77
2023/12/27 01:15:17;;;;;;;10.93;4.50;;;;;;;;;;5160416;22;20039;-78
2023/12/27 01:17:52;;;;;;;11.93;4.90;;;;;;;;;;5064070;28;20080;-77
2023/12/27 01:20:19;;;;;;;17.53;5.10;;;;;;;;;;5063157;28;20000;-77
2023/12/27 01:22:47;;;;;;;16.37;5.47;;;;;;;;;;5062046;28;20077;-77
2023/12/27 01:25:15;;;;;;;14.97;5.63;;;;;;;;;;5065003;28;20001;-78
2023/12/27 01:27:46;;;;;;;10.57;3.97;;;;;;;;;;5062242;28;20016;-78
2023/12/27 01:30:23;;;;;;;14.63;4.83;;;;;;;;;;5081137;28;20023;-78
2023/12/27 01:32:54;;;;;;;12.07;4.23;;;;;;;;;;5059044;28;20025;-77
2023/12/27 01:35:30;;;;;;;14.43;5.23;;;;;;;;;;5060863;28;20028;-77
2023/12/27 01:37:58;;;;;;;16.10;4.70;;;;;;;;;;5055014;28;20025;-78
2023/12/27 01:40:31;;;;;;;12.47;4.50;;;;;;;;;;5059537;28;20017;-77
2023/12/27 01:43:07;;;;;;;13.27;4.40;;;;;;;;;;5065087;28;20013;-78
2023/12/27 01:45:35;;;;;;;16.07;4.33;;;;;;;;;;5066277;28;21053;-78
2023/12/27 01:48:20;;;;;;;16.57;4.87;;;;;;;;;;5066837;28;20212;-77
2023/12/27 01:50:58;;;;;;;16.47;4.77;;;;;;;;;;5064745;28;20017;-78
2023/12/27 01:53:26;;;;;;;23.13;5.37;;;;;;;;;;5063941;28;20071;-77
2023/12/27 01:56:16;;;;;;;11.67;4.10;;;;;;;;;;5066219;28;20024;-78
2023/12/27 01:58:42;;;;;;;11.90;4.53;;;;;;;;;;5059479;28;20032;-78
2023/12/27 02:01:23;;;;;;;17.53;5.07;;;;;;;;;;5081896;28;20033;-77
2023/12/27 02:03:51;;;;;;;9.60;4.17;;;;;;;;;;5066196;28;20024;-77
2023/12/27 02:06:21;;;;;;;15.63;4.50;;;;;;;;;;5068091;28;20036;-78
2023/12/27 02:09:10;;;;;;;15.83;5.67;;;;;;;;;;5058887;28;20024;-77
2023/12/27 02:11:40;;;;;;;15.17;4.07;;;;;;;;;;5067298;28;20020;-78
2023/12/27 02:14:24;;;;;;;;;;;;;;;;;;;;;
2023/12/27 02:17:08;;;;;;;21.33;3.83;;;;;;;;;;5081016;28;20043;-77
2023/12/27 02:19:41;;;;;;;21.77;4.57;;;;;;;;;;5065610;28;20096;-77
2023/12/27 02:22:12;;;;;;;14.67;5.30;;;;;;;;;;5064937;28;20009;-77
2023/12/27 02:24:51;;;;;;;;;;;;;;;;;;;;;
2023/12/27 02:27:22;;;;;;;13.87;4.07;;;;;;;;;;5082922;28;20122;-78
2023/12/27 02:29:50;;;;;;;15.33;4.03;;;;;;;;;;5084813;28;20047;-78
2023/12/27 02:32:26;;;;;;;22.33;4.27;;;;;;;;;;5066074;28;20025;-78
2023/12/27 02:35:11;;;;;;;14.23;4.07;;;;;;;;;;5080069;28;20021;-77
2023/12/27 02:37:46;;;;;;;16.57;4.93;;;;;;;;;;5067245;28;20032;-78
2023/12/27 02:40:16;;;;;;;9.57;3.10;;;;;;;;;;5065324;28;20088;-77
2023/12/27 02:42:58;;;;;;;17.07;4.47;;;;;;;;;;5058819;28;20148;-78
2023/12/27 02:45:48;;;;;;;12.35;4.20;;;;;;;;;;5047435;28;20081;-78
2023/12/27 02:48:17;;;;;;;21.50;4.87;;;;;;;;;;5049278;28;20010;-78
2023/12/27 02:50:49;;;;;;;14.50;3.83;;;;;;;;;;5055573;28;20033;-78
2023/12/27 02:53:24;;;;;;;9.80;4.00;;;;;;;;;;5052778;28;20033;-77
2023/12/27 02:55:55;;;;;;;14.97;3.67;;;;;;;;;;5074210;28;20028;-78
2023/12/27 02:58:30;;;;;;;11.40;3.73;;;;;;;;;;5071235;28;20029;-78
2023/12/27 03:01:01;;;;;;;11.03;5.20;;;;;;;;;;5073261;28;20024;-78
2023/12/27 03:03:35;;;;;;;13.83;4.40;;;;;;;;;;5071756;28;20020;-77
2023/12/27 03:06:03;;;;;;;17.03;3.83;;;;;;;;;;5054128;28;20017;-78
2023/12/27 03:08:41;;;;;;;;;;;;;;;;;;;;;
2023/12/27 03:11:24;;;;;;;17.43;3.63;;;;;;;;;;5073954;28;20040;-78
2023/12/27 03:13:55;;;;;;;15.68;3.47;;;;;;;;;;5066797;28;20017;-78
2023/12/27 03:16:31;;;;;;;;;;;;;;;;;;;;;
2023/12/27 03:19:05;;;;;;;18.73;5.13;;;;;;;;;;5072386;28;20056;-78
2023/12/27 03:21:42;;;;;;;14.43;4.57;;;;;;;;;;5074351;28;20017;-78
2023/12/27 03:24:28;;;;;;;17.90;3.83;;;;;;;;;;5049898;28;20024;-78
2023/12/27 03:27:14;;;;;;;16.83;4.30;;;;;;;;;;5071514;28;20032;-78
2023/12/27 03:29:42;;;;;;;13.43;4.17;;;;;;;;;;5048395;28;20092;-78
2023/12/27 03:32:36;;;;;;;15.67;3.93;;;;;;;;;;5047356;28;20080;-78
2023/12/27 03:35:15;;;;;;;;;;;;;;;;;;;;;
2023/12/27 03:37:45;;;;;;;16.27;3.90;;;;;;;;;;5074063;28;20063;-77
2023/12/27 03:40:13;;;;;;;17.07;4.03;;;;;;;;;;5072372;28;20006;-78
2023/12/27 03:42:39;;;;;;;17.67;4.57;;;;;;;;;;5056488;28;20022;-78
2023/12/27 03:45:17;;;;;;;14.23;3.90;;;;;;;;;;5044330;28;20053;-78
2023/12/27 03:50:54;;;;;;;14.07;3.50;;;;;;;;;;5066455;28;20028;-78
2023/12/27 03:53:22;;;;;;;8.53;3.10;;;;;;;;;;5071857;28;20036;-78
2023/12/27 03:55:51;;;;;;;14.43;3.93;;;;;;;;;;5053189;28;20005;-78
2023/12/27 03:58:19;;;;;;;14.03;3.87;;;;;;;;;;5054597;28;20104;-77
2023/12/27 04:00:55;;;;;;;18.27;3.80;;;;;;;;;;5045953;28;20005;-78
2023/12/27 04:03:33;;;;;;;;;;;;;;;;;;;;;
2023/12/27 04:09:14;;;;;;;15.90;3.77;;;;;;;;;;5070025;28;20025;-78
2023/12/27 04:11:52;;;;;;;20.80;4.00;;;;;;;;;;5053811;28;20033;-78
2023/12/27 04:14:20;;;;;;;20.20;4.57;;;;;;;;;;5123340;23;20036;-78
2023/12/27 04:16:56;;;;;;;16.30;4.40;;;;;;;;;;5076536;28;20005;-77
2023/12/27 04:19:28;;;;;;;15.87;4.03;;;;;;;;;;5075386;28;20032;-78
2023/12/27 04:21:54;;;;;;;12.80;3.77;;;;;;;;;;5075823;28;20025;-78
2023/12/27 04:24:22;;;;;;;17.23;4.00;;;;;;;;;;5074679;28;20021;-78
2023/12/27 04:26:53;;;;;;;13.37;3.93;;;;;;;;;;5090260;27;20037;-78
2023/12/27 04:29:35;;;;;;;;;;;;;;;;;;;;;
2023/12/27 04:32:08;;;;;;;11.67;3.97;;;;;;;;;;5076242;28;20049;-78
2023/12/27 04:34:37;;;;;;;16.10;3.97;;;;;;;;;;5091095;28;20017;-78
2023/12/27 04:37:17;;;;;;;14.10;3.83;;;;;;;;;;5074123;28;20195;-78
2023/12/27 04:39:48;;;;;;;12.10;3.30;;;;;;;;;;5089681;27;20001;-78
2023/12/27 04:42:37;;;;;;;18.30;4.40;;;;;;;;;;5075706;28;20031;-78
2023/12/27 04:45:05;;;;;;;17.27;4.80;;;;;;;;;;5073095;28;20013;-78
2023/12/27 04:47:37;;;;;;;12.93;3.13;;;;;;;;;;5078835;28;20013;-78
2023/12/27 04:50:04;;;;;;;18.20;4.53;;;;;;;;;;5094429;28;20033;-78
2023/12/27 04:52:32;;;;;;;13.53;3.90;;;;;;;;;;5070028;28;20020;-78
2023/12/27 04:54:58;;;;;;;23.27;4.40;;;;;;;;;;5067583;28;20016;-79
2023/12/27 04:57:27;;;;;;;15.40;3.67;;;;;;;;;;5078326;28;20025;-78
2023/12/27 04:59:53;;;;;;;15.53;3.43;;;;;;;;;;5074441;28;20024;-77
2023/12/27 05:02:21;;;;;;;17.43;3.93;;;;;;;;;;5069295;28;20021;-78
2023/12/27 05:04:50;;;;;;;11.40;3.20;;;;;;;;;;5077456;28;20105;-78
2023/12/27 05:07:47;;;;;;;18.47;4.17;;;;;;;;;;5077663;28;20028;-80
2023/12/27 05:10:21;;;;;;;13.90;3.30;;;;;;;;;;5074824;28;20029;-78
2023/12/27 05:12:56;;;;;;;8.53;2.73;;;;;;;;;;5078200;28;20033;-78
2023/12/27 05:15:38;;;;;;;16.53;4.00;;;;;;;;;;5075932;28;20044;-78
2023/12/27 05:18:07;;;;;;;14.63;3.67;;;;;;;;;;5091589;28;20045;-78
2023/12/27 05:20:43;;;;;;;11.50;2.77;;;;;;;;;;5079578;28;20033;-78
2023/12/27 05:23:14;;;;;;;17.17;3.30;;;;;;;;;;5088954;28;20013;-78
2023/12/27 05:25:47;;;;;;;10.20;3.03;;;;;;;;;;5094427;27;20009;-79
2023/12/27 05:28:13;;;;;;;9.77;3.50;;;;;;;;;;5099188;28;20037;-78
2023/12/27 05:30:47;;;;;;;12.93;2.97;;;;;;;;;;5094187;28;20013;-78
2023/12/27 05:33:13;;;;;;;9.33;2.83;;;;;;;;;;5077789;28;20025;-78
2023/12/27 05:35:46;;;;;;;12.87;3.07;;;;;;;;;;5090151;28;20001;-78
2023/12/27 05:38:24;;;;;;;;;;;;;;;;;;;;;
2023/12/27 05:40:59;;;;;;;13.13;2.80;;;;;;;;;;5076206;28;20001;-78
2023/12/27 05:43:45;;;;;;;14.90;3.23;;;;;;;;;;5070772;28;20021;-79
2023/12/27 05:46:32;;;;;;;13.43;2.93;;;;;;;;;;5092240;28;20005;-79
2023/12/27 05:49:02;;;;;;;8.47;2.90;;;;;;;;;;5071176;28;20045;-78
2023/12/27 05:51:39;;;;;;;12.60;3.53;;;;;;;;;;5076602;28;20009;-78
2023/12/27 05:54:19;;;;;;;;;;;;;;;;;;;;;
2023/12/27 05:56:55;;;;;;;10.57;3.40;;;;;;;;;;5072459;28;20024;-78
2023/12/27 06:02:18;;;;;;;10.63;3.37;;;;;;;;;;5086649;28;20032;-77
2023/12/27 06:05:01;;;;;;;9.37;3.50;;;;;;;;;;5086724;28;20073;-78
2023/12/27 06:07:36;;;;;;;14.55;3.90;;;;;;;;;;5076858;28;20013;-78
2023/12/27 06:10:12;;;;;;;9.97;2.90;;;;;;;;;;5069354;28;20018;-78
2023/12/27 06:15:29;;;;;;;9.47;3.43;;;;;;;;;;5068237;28;20059;-78
2023/12/27 06:18:05;;;;;;;12.90;4.00;;;;;;;;;;5075254;28;20041;-78
2023/12/27 06:20:49;;;;;;;13.17;3.87;;;;;;;;;;5071512;28;20083;-78
2023/12/27 06:23:17;;;;;;;12.20;3.47;;;;;;;;;;5073467;28;20009;-78
2023/12/27 06:26:00;;;;;;;14.63;4.43;;;;;;;;;;5072501;28;20119;-78
2023/12/27 06:28:44;;;;;;;11.37;3.80;;;;;;;;;;5073917;28;20037;-77
2023/12/27 06:31:14;;;;;;;13.40;4.63;;;;;;;;;;5091853;27;20033;-78
2023/12/27 06:33:56;;;;;;;14.43;4.40;;;;;;;;;;5075256;28;20024;-78
2023/12/27 06:36:33;;;;;;;17.30;5.00;;;;;;;;;;5074248;28;20033;-78
2023/12/27 06:39:01;;;;;;;15.27;3.90;;;;;;;;;;5087134;28;20045;-77
2023/12/27 06:44:25;;;;;;;9.50;4.07;;;;;;;;;;5075242;28;20044;-78
2023/12/27 06:47:19;;;;;;;14.60;4.70;;;;;;;;;;5091283;27;20021;-78
2023/12/27 06:52:17;;;;;;;17.40;4.80;;;;;;;;;;5093667;28;20051;-78
2023/12/27 06:54:46;;;;;;;11.93;4.97;;;;;;;;;;5076500;28;20037;-78
2023/12/27 06:57:14;;;;;;;14.20;4.17;;;;;;;;;;5077386;28;20040;-78
2023/12/27 06:59:46;;;;;;;17.50;5.00;;;;;;;;;;5076611;28;20016;-78
2023/12/27 07:02:32;;;;;;;12.43;4.70;;;;;;;;;;5076575;28;20025;-79
2023/12/27 07:05:24;;;;;;;11.93;4.50;;;;;;;;;;5069756;28;20043;-78
2023/12/27 07:08:20;;;;;;;10.50;4.20;;;;;;;;;;5092630;28;20046;-78
2023/12/27 07:10:49;;;;;;;19.87;4.87;;;;;;;;;;5075604;28;20020;-78
2023/12/27 07:13:28;;;;;;;;;;;;;;;;;;;;;
2023/12/27 07:16:14;;;;;;;14.83;4.40;;;;;;;;;;5093404;28;20048;-78
2023/12/27 07:18:56;;;;;;;22.53;4.63;;;;;;;;;;5075744;28;20025;-78
2023/12/27 07:21:35;;;;;;;;;;;;;;;;;;;;;
2023/12/27 07:24:08;;;;;;;14.27;5.43;;;;;;;;;;5093223;28;20099;-78
2023/12/27 07:26:57;;;;;;;15.60;4.77;;;;;;;;;;5072218;28;20016;-78
2023/12/27 07:29:23;;;;;;;13.07;4.10;;;;;;;;;;5075613;28;20021;-78
2023/12/27 07:31:56;;;;;;;12.20;4.40;;;;;;;;;;5093919;28;20044;-78
2023/12/27 07:34:27;;;;;;;18.07;4.80;;;;;;;;;;5075813;28;20019;-78
2023/12/27 07:37:11;;;;;;;11.73;4.23;;;;;;;;;;5075630;28;20042;-78
2023/12/27 07:39:51;;;;;;;14.90;4.67;;;;;;;;;;5091122;28;20020;-77
2023/12/27 07:42:19;;;;;;;15.13;4.40;;;;;;;;;;5130062;23;20029;-78
2023/12/27 07:45:00;;;;;;;11.47;3.83;;;;;;;;;;5092728;28;20017;-78
2023/12/27 07:47:26;;;;;;;12.70;3.90;;;;;;;;;;5088478;28;20057;-78
2023/12/27 07:49:55;;;;;;;18.73;5.10;;;;;;;;;;5109734;28;20016;-78
2023/12/27 07:52:28;;;;;;;12.40;4.27;;;;;;;;;;5077040;28;20265;-77
2023/12/27 07:54:58;;;;;;;15.43;4.20;;;;;;;;;;5241355;22;20115;-78
2023/12/27 07:57:52;;;;;;;12.03;3.17;;;;;;;;;;5114813;27;20043;-78
2023/12/27 08:00:27;;;;;;;12.67;3.90;;;;;;;;;;5111138;27;20008;-78
2023/12/27 08:03:03;;;;;;;12.20;3.83;;;;;;;;;;5115854;27;20027;-78
2023/12/27 08:05:37;;;;;;;8.97;3.73;;;;;;;;;;5131273;27;20008;-78
2023/12/27 08:08:03;;;;;;;11.53;3.43;;;;;;;;;;5133940;27;20047;-79
2023/12/27 08:10:37;;;;;;;13.13;3.50;;;;;;;;;;5113288;27;20070;-79
2023/12/27 08:13:07;;;;;;;18.60;4.50;;;;;;;;;;5116080;27;20055;-76
2023/12/27 08:15:36;;;;;;;13.57;4.97;;;;;;;;;;5126521;22;20044;-79
2023/12/27 08:18:04;;;;;;;10.90;3.93;;;;;;;;;;5099687;28;20027;-78
2023/12/27 08:20:39;;;;;;;8.90;3.30;;;;;;;;;;5098746;28;20088;-78
2023/12/27 08:23:16;;;;;;;;;;;;;;;;;;;;;
2023/12/27 08:25:49;;;;;;;13.93;3.20;;;;;;;;;;5101957;28;20024;-78
2023/12/27 08:28:17;;;;;;;15.23;3.42;;;;;;;;;;5100338;28;20031;-78
2023/12/27 08:30:46;;;;;;;10.57;3.37;;;;;;;;;;5100780;28;20024;-78
2023/12/27 08:33:20;;;;;;;12.47;3.60;;;;;;;;;;5110568;27;20020;-78
2023/12/27 08:35:46;;;;;;;11.13;3.30;;;;;;;;;;5114171;28;20023;-77
2023/12/27 08:38:15;;;;;;;5.23;3.30;;;;;;;;;;5098355;28;20054;-77
2023/12/27 08:40:41;;;;;;;9.67;4.07;;;;;;;;;;5097664;28;20084;-77
2023/12/27 08:43:29;;;;;;;16.07;4.23;;;;;;;;;;5092783;28;20036;-77
2023/12/27 08:45:56;;;;;;;13.17;3.90;;;;;;;;;;5082130;28;20020;-77
2023/12/27 08:48:29;;;;;;;10.63;4.60;;;;;;;;;;5091819;28;20009;-77
2023/12/27 08:51:05;;;;;;;;;;;;;;;;;;;;;
2023/12/27 08:53:31;;;;;;;9.17;3.47;;;;;;;;;;5270662;22;20287;-77
2023/12/27 08:56:15;;;;;;;10.37;4.33;;;;;;;;;;5120722;22;20062;-78
2023/12/27 08:58:50;;;;;;;11.23;3.97;;;;;;;;;;5184190;22;20040;-79
2023/12/27 09:01:17;;;;;;;15.00;4.67;;;;;;;;;;5088820;28;20032;-78
2023/12/27 09:03:48;;;;;;;8.93;3.10;;;;;;;;;;5088091;28;20016;-77
2023/12/27 09:06:31;;;;;;;11.57;3.93;;;;;;;;;;5089226;28;20037;-78
2023/12/27 09:08:57;;;;;;;7.00;3.20;;;;;;;;;;5085615;28;20035;-77
2023/12/27 09:11:26;;;;;;;6.67;3.17;;;;;;;;;;5087837;28;20036;-78
2023/12/27 09:16:23;;;;;;;13.00;4.10;;;;;;;;;;5111658;28;20024;-78
2023/12/27 09:18:51;;;;;;;8.20;3.20;;;;;;;;;;5111898;28;20030;-78
2023/12/27 09:21:30;;;;;;;;;;;;;;;;;;;;;
2023/12/27 09:23:58;;;;;;;10.07;3.60;;;;;;;;;;5112861;28;20024;-78
2023/12/27 09:26:27;;;;;;;15.13;4.50;;;;;;;;;;5111994;28;20032;-77
2023/12/27 09:29:19;;;;;;;12.63;4.17;;;;;;;;;;5111534;28;20024;-77
2023/12/27 09:31:54;;;;;;;9.53;3.63;;;;;;;;;;5111400;28;20017;-77
2023/12/27 09:34:30;;;;;;;9.83;3.10;;;;;;;;;;5111470;28;20289;-77
2023/12/27 09:39:44;;;;;;;3.83;2.73;;;;;;;;;;5112734;28;20051;-76
2023/12/27 09:42:13;;;;;;;8.37;3.30;;;;;;;;;;5112232;28;20027;-77
2023/12/27 09:44:52;;;;;;;12.57;3.83;;;;;;;;;;5107336;22;20036;-77
2023/12/27 09:47:18;;;;;;;5.27;3.30;;;;;;;;;;5069805;28;20329;-77
2023/12/27 09:52:39;;;;;;;7.67;3.60;;;;;;;;;;5249977;22;20040;-78
2023/12/27 09:55:08;;;;;;;9.83;3.33;;;;;;;;;;5130464;27;20012;-77
2023/12/27 09:57:34;;;;;;;6.83;3.07;;;;;;;;;;5128681;27;20055;-79
2023/12/27 10:00:06;;;;;;;4.37;2.93;;;;;;;;;;5133093;27;20016;-77
2023/12/27 10:02:50;;;;;;;9.50;4.03;;;;;;;;;;5132351;27;20015;-77
2023/12/27 10:05:30;;;;;;;;;;;;;;;;;;;;;
2023/12/27 10:08:00;;;;;;;8.47;3.27;;;;;;;;;;5118823;28;20036;-79
2023/12/27 10:10:26;;;;;;;9.10;3.37;;;;;;;;;;5119428;28;20021;-78
2023/12/27 10:13:03;;;;;;;7.10;3.43;;;;;;;;;;5123006;28;20040;-78
2023/12/27 10:15:29;;;;;;;5.70;2.37;;;;;;;;;;5135206;27;20008;-79
2023/12/27 10:17:57;;;;;;;4.53;2.50;;;;;;;;;;5117205;28;20028;-79
2023/12/27 10:20:50;;;;;;;6.30;2.30;;;;;;;;;;5117112;28;20112;-79
2023/12/27 10:26:57;;;;;;;4.43;2.43;;;;;;;;;;5119742;28;20035;-80
2023/12/27 10:36:20;;;;;;;5.60;2.50;;;;;;;;;;5103857;28;20044;-79
2023/12/27 10:39:31;;;;;;;3.77;2.67;;;;;;;;;;5118281;28;20040;-79
2023/12/27 10:42:17;;;;;;;;;;;;;;;;;;;;;
2023/12/27 10:45:24;;;;;;;7.87;4.47;;;;;;;;;;5152959;22;20056;-79
2023/12/27 10:48:01;;;;;;;6.27;2.70;;;;;;;;;;5038669;28;20005;-80
2023/12/27 10:50:36;;;;;;;5.23;2.57;;;;;;;;;;5058370;28;20057;-79
2023/12/27 10:53:28;;;;;;;4.57;2.13;;;;;;;;;;5058781;28;20036;-79
2023/12/27 10:56:15;;;;;;;;;;;;;;;;;;;;;
2023/12/27 11:01:51;;;;;;;5.10;2.45;;;;;;;;;;5060361;28;20093;-77
2023/12/27 11:04:33;;;;;;;6.47;2.63;;;;;;;;;;5042031;28;20022;-75
2023/12/27 11:07:18;;;;;;;5.32;2.10;;;;;;;;;;5039125;28;20077;-78
2023/12/27 11:09:54;;;;;;;3.70;2.07;;;;;;;;;;5062306;28;20033;-76
2023/12/27 11:12:47;;;;;;;3.60;1.73;;;;;;;;;;5060278;28;20022;-79
2023/12/27 11:15:16;;;;;;;3.43;2.20;;;;;;;;;;5148653;22;20043;-78
2023/12/27 11:17:43;;;;;;;4.40;1.97;;;;;;;;;;5131701;28;20003;-78
2023/12/27 11:20:57;;;;;;;;;;;;;;;;;;;;;
2023/12/27 11:23:27;;;;;;;3.00;1.70;;;;;;;;;;5061654;28;20005;-78
2023/12/27 11:26:03;;;;;;;3.33;1.97;;;;;;;;;;5108534;28;20023;-78
2023/12/27 11:28:38;;;;;;;4.53;1.27;;;;;;;;;;5125067;28;20016;-78
2023/12/27 11:31:09;;;;;;;2.00;1.13;;;;;;;;;;5121489;28;20000;-77
2023/12/27 11:33:53;;;;;;;2.30;1.03;;;;;;;;;;5123752;28;20040;-78
2023/12/27 11:36:42;;;;;;;1.67;0.93;;;;;;;;;;5103325;28;20008;-77
2023/12/27 11:39:28;;;;;;;2.97;1.07;;;;;;;;;;5115010;28;20080;-78
2023/12/27 11:42:10;;;;;;;;;;;;;;;;;;;;;
2023/12/27 11:44:42;;;;;;;3.63;0.60;;;;;;;;;;5115836;28;19992;-78
2023/12/27 11:47:13;;;;;;;2.70;0.50;;;;;;;;;;5120054;28;20004;-78
2023/12/27 11:49:59;;;;;;;2.13;0.60;;;;;;;;;;5117244;28;20009;-77
2023/12/27 11:52:44;;;;;;;2.27;1.03;;;;;;;;;;5111256;28;20027;-78
2023/12/27 11:55:39;;;;;;;4.20;0.60;;;;;;;;;;5115551;28;19996;-77
2023/12/27 12:01:16;;;;;;;1.03;0.60;;;;;;;;;;5112617;28;20011;-78
2023/12/27 12:04:06;;;;;;;3.63;0.70;;;;;;;;;;5103680;28;20013;-78
2023/12/27 12:06:52;;;;;;;2.13;0.80;;;;;;;;;;5122193;28;20010;-78
2023/12/27 12:09:20;;;;;;;1.27;0.50;;;;;;;;;;5114668;28;20017;-77
2023/12/27 12:12:37;;;;;;;;;;;;;;;;;;;;;
2023/12/27 12:15:04;;;;;;;2.13;0.40;;;;;;;;;;5123710;22;20039;-77
2023/12/27 12:17:53;;;;;;;;;;;;;;;;;;;;;
2023/12/27 12:20:24;;;;;;;1.73;0.83;;;;;;;;;;5093615;28;20008;-77
2023/12/27 12:23:00;;;;;;;;;;;;;;;;;;;;;
2023/12/27 12:25:29;;;;;;;0.73;0.50;;;;;;;;;;5093360;28;20023;-77
2023/12/27 12:28:05;;;;;;;;;;;;;;;;;;;;;
2023/12/27 12:30:39;;;;;;;1.23;0.70;;;;;;;;;;5093992;28;20024;-78
2023/12/27 12:33:25;;;;;;;2.20;0.50;;;;;;;;;;5077861;28;20004;-78
2023/12/27 12:35:52;;;;;;;3.43;0.83;;;;;;;;;;5073862;28;20024;-78
2023/12/27 12:38:33;;;;;;;1.93;0.80;;;;;;;;;;5075821;28;20021;-77
2023/12/27 12:41:11;;;;;;;3.00;1.07;;;;;;;;;;5069700;28;20088;-78
2023/12/27 12:43:45;;;;;;;2.93;1.27;;;;;;;;;;5088933;28;20275;-78
2023/12/27 12:46:21;;;;;;;2.13;0.77;;;;;;;;;;5076454;28;20087;-77
2023/12/27 12:48:53;;;;;;;0.60;0.30;;;;;;;;;;5076941;28;20021;-77
2023/12/27 12:51:22;;;;;;;2.83;0.85;;;;;;;;;;5076350;28;20043;-77
2023/12/27 12:54:10;;;;;;;5.03;0.70;;;;;;;;;;5093534;28;20016;-78
2023/12/27 12:56:50;;;;;;;0.97;0.53;;;;;;;;;;5075217;28;20102;-78
2023/12/27 12:59:21;;;;;;;1.37;0.67;;;;;;;;;;5075628;28;20184;-77
2023/12/27 13:01:47;;;;;;;3.03;0.80;;;;;;;;;;5075462;28;20017;-77
2023/12/27 13:04:18;;;;;;;3.10;0.80;;;;;;;;;;5076528;28;20001;-77
2023/12/27 13:06:58;;;;;;;2.20;0.80;;;;;;;;;;5077068;28;20028;-77
2023/12/27 13:09:35;;;;;;;3.00;0.90;;;;;;;;;;5077317;28;20038;-77
2023/12/27 13:12:14;;;;;;;2.63;0.93;;;;;;;;;;5074865;28;20020;-77
2023/12/27 13:14:49;;;;;;;5.23;1.50;;;;;;;;;;5074879;28;20032;-77
2023/12/27 13:17:18;;;;;;;4.03;1.40;;;;;;;;;;5073919;28;20039;-77
2023/12/27 13:19:49;;;;;;;3.27;0.93;;;;;;;;;;5074009;28;20104;-77
2023/12/27 13:22:27;;;;;;;2.87;1.00;;;;;;;;;;5074997;28;20054;-78
2023/12/27 13:25:23;;;;;;;;;;;;;;;;;;;;;
2023/12/27 13:28:13;;;;;;;8.23;1.57;;;;;;;;;;5088071;28;20040;-77
2023/12/27 13:30:39;;;;;;;4.10;1.53;;;;;;;;;;5136852;23;20032;-77
2023/12/27 13:33:07;;;;;;;4.43;1.27;;;;;;;;;;5113089;28;20019;-77
2023/12/27 13:35:46;;;;;;;;;;;;;;;;;;;;;
2023/12/27 13:38:18;;;;;;;9.20;1.83;;;;;;;;;;5116982;28;20032;-78
2023/12/27 13:40:54;;;;;;;6.90;1.47;;;;;;;;;;5133292;27;20032;-78
2023/12/27 13:43:39;;;;;;;4.93;1.20;;;;;;;;;;5116081;28;20110;-77
2023/12/27 13:46:19;;;;;;;5.67;0.90;;;;;;;;;;5115803;28;20036;-77
2023/12/27 13:49:08;;;;;;;;;;;;;;;;;;;;;
2023/12/27 13:51:44;;;;;;;;;;;;;;;;;;;;;
2023/12/27 13:54:32;;;;;;;5.80;1.27;;;;;;;;;;5116284;28;20051;-77
2023/12/27 13:57:04;;;;;;;3.83;1.30;;;;;;;;;;5115931;27;20223;-76
2023/12/27 14:00:10;;;;;;;;;;;;;;;;;;;;;
2023/12/27 14:02:36;;;;;;;9.67;1.43;;;;;;;;;;5116720;28;20036;-77
2023/12/27 14:05:04;;;;;;;6.20;1.40;;;;;;;;;;5115297;28;20130;-77
2023/12/27 14:07:36;;;;;;;6.27;1.70;;;;;;;;;;5115837;28;20020;-78
2023/12/27 14:10:14;;;;;;;;;;;;;;;;;;;;;
2023/12/27 14:12:58;;;;;;;6.73;1.40;;;;;;;;;;5116066;28;20072;-78
2023/12/27 14:15:35;;;;;;;8.77;1.80;;;;;;;;;;5157151;22;20020;-78
2023/12/27 14:18:04;;;;;;;5.77;1.27;;;;;;;;;;5116624;28;20024;-77
2023/12/27 14:20:35;;;;;;;7.07;1.67;;;;;;;;;;5099188;28;20015;-77
2023/12/27 14:23:12;;;;;;;11.93;1.53;;;;;;;;;;5100170;28;20012;-78
2023/12/27 14:25:50;;;;;;;;;;;;;;;;;;;;;
2023/12/27 14:28:36;;;;;;;13.30;1.53;;;;;;;;;;5098275;28;20035;-77
2023/12/27 14:31:34;;;;;;;4.83;1.53;;;;;;;;;;5100516;28;20024;-78
2023/12/27 14:34:09;;;;;;;;;;;;;;;;;;;;;
2023/12/27 14:36:39;;;;;;;4.07;1.97;;;;;;;;;;5101059;28;20041;-78
2023/12/27 14:39:10;;;;;;;9.80;1.67;;;;;;;;;;5097146;28;20063;-78
2023/12/27 14:41:51;;;;;;;6.83;1.50;;;;;;;;;;5097383;28;20012;-77
2023/12/27 14:44:32;;;;;;;6.13;1.63;;;;;;;;;;5108177;28;20092;-77
2023/12/27 14:47:01;;;;;;;5.93;1.63;;;;;;;;;;5174783;22;20040;-78
2023/12/27 14:49:48;;;;;;;6.07;1.63;;;;;;;;;;5096486;28;20039;-77
2023/12/27 14:52:24;;;;;;;8.17;1.83;;;;;;;;;;5113816;28;20061;-77
2023/12/27 14:54:57;;;;;;;7.77;1.80;;;;;;;;;;5115095;28;20012;-78
2023/12/27 14:57:39;;;;;;;8.63;1.80;;;;;;;;;;5131187;28;20016;-77
2023/12/27 15:00:28;;;;;;;4.25;1.45;;;;;;;;;;5113810;28;20038;-78
2023/12/27 15:03:00;;;;;;;10.57;1.80;;;;;;;;;;5110661;28;20024;-78
2023/12/27 15:05:29;;;;;;;8.85;2.67;;;;;;;;;;5109640;28;20025;-77
2023/12/27 15:08:07;;;;;;;;;;;;;;;;;;;;;
2023/12/27 15:10:41;;;;;;;12.17;1.63;;;;;;;;;;5114396;28;20058;-77
2023/12/27 15:13:07;;;;;;;6.60;2.03;;;;;;;;;;5113404;27;20047;-77
2023/12/27 15:19:12;;;;;;;5.03;1.50;;;;;;;;;;5114325;28;20051;-77
2023/12/27 15:22:09;;;;;;;5.97;1.37;;;;;;;;;;5114290;28;20020;-78
2023/12/27 15:24:50;;;;;;;;;;;;;;;;;;;;;
2023/12/27 15:27:25;;;;;;;10.57;2.37;;;;;;;;;;5114403;28;20040;-78
2023/12/27 15:29:57;;;;;;;10.40;2.57;;;;;;;;;;5128031;28;20032;-77
2023/12/27 15:32:46;;;;;;;5.80;1.50;;;;;;;;;;5112844;27;20042;-77
2023/12/27 15:35:14;;;;;;;5.70;1.77;;;;;;;;;;5113314;28;20215;-77
2023/12/27 15:37:43;;;;;;;5.77;1.67;;;;;;;;;;5113816;28;20040;-77
2023/12/27 15:40:17;;;;;;;5.10;1.40;;;;;;;;;;5109039;28;20023;-77
2023/12/27 15:42:46;;;;;;;4.43;1.83;;;;;;;;;;5112500;28;20065;-76
2023/12/27 15:45:32;;;;;;;;;;;;;;;;;;;;;
2023/12/27 15:48:28;;;;;;;8.03;1.63;;;;;;;;;;5114345;28;20052;-77
2023/12/27 15:51:00;;;;;;;7.00;2.23;;;;;;;;;;5127043;28;20109;-76
2023/12/27 15:53:59;;;;;;;;;;;;;;;;;;;;;
2023/12/27 15:57:01;;;;;;;12.00;2.77;;;;;;;;;;5110463;28;20070;-77
2023/12/27 16:00:17;;;;;;;;;;;;;;;;;;;;;
2023/12/27 16:02:59;;;;;;;3.40;1.80;;;;;;;;;;5112255;28;20020;-77
2023/12/27 16:05:43;;;;;;;;;;;;;;;;;;;;;
2023/12/27 16:11:31;;;;;;;8.57;2.60;;;;;;;;;;5113049;28;20051;-77
2023/12/27 16:14:20;;;;;;;7.17;2.37;;;;;;;;;;5113304;28;20046;-77
2023/12/27 16:16:55;;;;;;;10.67;3.30;;;;;;;;;;5114001;28;20072;-77
2023/12/27 16:19:39;;;;;;;;;;;;;;;;;;;;;
2023/12/27 16:32:39;;;;;;;12.38;2.63;;;;;;;;;;5089978;28;20146;-77
2023/12/27 16:35:17;;;;;;;;;;;;;;;;;;;;;
2023/12/27 16:38:10;;;;;;;8.20;2.00;;;;;;;;;;5092456;28;20040;-77
2023/12/27 16:40:46;;;;;;;9.67;2.70;;;;;;;;;;5134811;22;20029;-78
2023/12/27 16:43:18;;;;;;;9.40;2.70;;;;;;;;;;5079509;28;20119;-77
2023/12/27 16:46:06;;;;;;;8.20;2.50;;;;;;;;;;5065477;28;20009;-78
2023/12/27 16:48:54;;;;;;;;;;;;;;;;;;;;;
2023/12/27 16:51:44;;;;;;;13.33;3.20;;;;;;;;;;5083431;28;20009;-77
2023/12/27 16:54:09;;;;;;;5.10;2.57;;;;;;;;;;5074302;28;20021;-77
2023/12/27 16:56:43;;;;;;;8.07;2.20;;;;;;;;;;5071390;28;20032;-78
2023/12/27 16:59:18;;;;;;;6.90;2.80;;;;;;;;;;5077457;28;20041;-78
2023/12/27 17:01:50;;;;;;;9.77;2.60;;;;;;;;;;5066354;28;20020;-78
2023/12/27 17:04:41;;;;;;;7.85;2.78;;;;;;;;;;5060742;28;20016;-78
2023/12/27 17:07:16;;;;;;;8.80;2.87;;;;;;;;;;5063338;28;20025;-78
2023/12/27 17:09:52;;;;;;;8.27;2.60;;;;;;;;;;5074982;28;20076;-78
2023/12/27 17:12:39;;;;;;;6.00;2.87;;;;;;;;;;5064042;28;20101;-77